Pryor, Montana
Current Conditions -  °F | °C
As of 5:53 PM on Saturday 27 Dec 2014 (Local Time) from KBIL Reporting Station
Broken Clouds Broken Clouds  
Wind Chill:   Ceiling: 15000
Heat Index: 23°   Visibility: 10mi
Dew Point: 12°   Wind: 17mph
Humidity: 63%   Direction: 230°SW
Pressure: 29.98"   Gusts: NA
Location:  45.43°N, 108.53°W
Report Text: KBIL 280053Z 23015KT 10SM BKN150 M05/M11 A2998 RMK AO2 SLP199 T10501111 $
Loading
Personal Weather Stations






























Interactive Weather Map New forecast layout! Learn more

10-Day Weather Forecast

Advertisements
Track Severe Weather on mobile